Time;durP1;ratioP1;P1;durP2;ratioP2;P2;SDS_P1;SDS_P2;PMS_P1;PMS_P2;Temp;Humidity;BMP_temperature;BMP_pressure;BME280_temperature;BME280_humidity;BME280_pressure;Samples;Min_cycle;Max_cycle;Signal;HPM_P1;HPM_P2
2021/01/09 10:51:15;;;;;;;30.08;14.63;;;256.10;1612.80;;;;;;5060737;28;20366;-70
2021/01/09 10:53:40;;;;;;;28.90;14.17;;;179.40;1894.40;;;;;;5062981;28;20056;-69
2021/01/09 10:58:35;;;;;;;24.92;12.43;;;179.80;2150.40;;;;;;5096205;27;20362;-74
2021/01/09 11:01:01;;;;;;;55.10;24.75;;;179.70;1868.80;;;;;;5082927;28;20056;-72
2021/01/09 11:03:27;;;;;;;55.13;25.15;;;179.60;1868.80;;;;;;5092766;28;20035;-73
2021/01/09 11:05:53;;;;;;;29.90;14.55;;;179.50;1920.00;;;;;;5083671;28;20355;-70
2021/01/09 11:08:18;;;;;;;28.08;13.93;;;179.50;1894.40;;;;;;5083723;28;20036;-71
2021/01/09 11:10:44;;;;;;;24.23;12.05;;;179.60;1894.40;;;;;;5079086;28;20028;-71
2021/01/09 11:13:10;;;;;;;24.83;12.77;;;179.70;1868.80;;;;;;5080138;28;20099;-74
2021/01/09 11:15:35;;;;;;;24.95;12.13;;;179.80;1843.20;;;;;;5086352;28;20112;-74
2021/01/09 11:18:01;;;;;;;33.42;16.77;;;179.80;1843.20;;;;;;5076239;28;20021;-79
2021/01/09 11:20:27;;;;;;;35.30;18.73;;;179.80;1843.20;;;;;;5069822;28;20477;-79
2021/01/09 11:22:52;;;;;;;50.20;25.35;;;179.80;1843.20;;;;;;5038796;28;20494;-77
2021/01/09 11:25:18;;;;;;;67.45;33.13;;;179.80;1792.00;;;;;;5072214;28;20029;-73
2021/01/09 11:27:44;;;;;;;43.92;22.98;;;179.70;1843.20;;;;;;5070505;28;20029;-73
2021/01/09 11:30:10;;;;;;;42.92;21.60;;;179.90;1843.20;;;;;;5070486;28;20043;-71
2021/01/09 11:32:35;;;;;;;68.55;35.28;;;180.10;1843.20;;;;;;5084820;28;20039;-71
2021/01/09 11:35:02;;;;;;;79.45;40.42;;;205.00;1766.40;;;;;;5088566;28;20021;-75
2021/01/09 11:37:27;;;;;;;46.28;23.25;;;205.60;1715.20;;;;;;5076031;28;20048;-71
2021/01/09 11:39:54;;;;;;;34.80;18.67;;;230.90;1664.00;;;;;;5083281;28;20025;-75
2021/01/09 11:42:23;;;;;;;52.40;27.75;;;256.20;1587.20;;;;;;5059737;28;20588;-72
2021/01/09 11:44:49;;;;;;;30.55;17.48;;;256.20;1587.20;;;;;;5087092;28;20032;-73
2021/01/09 11:47:15;;;;;;;26.17;13.27;;;256.40;1561.60;;;;;;5086337;28;20028;-73
2021/01/09 11:49:41;;;;;;;36.95;20.63;;;256.60;1536.00;;;;;;5097218;28;20026;-73
2021/01/09 11:52:06;;;;;;;73.50;39.20;;;231.00;1638.40;;;;;;5064388;28;20080;-74
2021/01/09 11:54:32;;;;;;;60.78;34.67;;;230.40;1689.60;;;;;;5069064;28;20487;-74
2021/01/09 11:57:00;;;;;;;49.58;27.75;;;205.20;1740.80;;;;;;5054641;28;20502;-73
2021/01/09 11:59:25;;;;;;;38.83;20.00;;;180.10;1792.00;;;;;;5055444;28;20074;-72
2021/01/09 12:01:51;;;;;;;24.88;12.35;;;179.60;1843.20;;;;;;5067774;28;20042;-72
2021/01/09 12:04:17;;;;;;;22.10;11.35;;;179.20;1868.80;;;;;;5080326;28;20016;-71
2021/01/09 12:06:42;;;;;;;51.72;27.05;;;154.40;1868.80;;;;;;5054738;28;20035;-73
2021/01/09 12:09:08;;;;;;;47.00;24.90;;;154.00;1945.60;;;;;;5078340;28;20017;-72
2021/01/09 12:11:34;;;;;;;65.78;35.08;;;153.80;1945.60;;;;;;5056579;28;20024;-71
2021/01/09 12:14:00;;;;;;;50.63;26.52;;;153.60;1971.20;;;;;;5074596;28;20370;-71
2021/01/09 12:16:30;;;;;;;53.97;28.75;;;128.80;2022.40;;;;;;5067088;28;20033;-72
2021/01/09 12:18:56;;;;;;;51.40;29.02;;;128.60;1996.80;;;;;;5077115;28;20021;-72
2021/01/09 12:21:22;;;;;;;54.58;30.10;;;128.40;2073.60;;;;;;5055873;28;20434;-72
2021/01/09 12:23:48;;;;;;;61.10;31.85;;;128.20;2073.60;;;;;;5074171;28;20013;-74
2021/01/09 12:26:18;;;;;;;54.58;30.40;;;128.00;2073.60;;;;;;5053910;28;20389;-71
2021/01/09 12:28:44;;;;;;;62.38;32.55;;;103.30;2073.60;;;;;;5061138;28;20032;-73
2021/01/09 12:31:09;;;;;;;47.67;23.65;;;103.20;2099.20;;;;;;5080296;28;20020;-69
2021/01/09 12:33:35;;;;;;;47.97;23.63;;;103.10;2124.80;;;;;;5064566;28;20115;-72
2021/01/09 12:36:00;;;;;;;49.95;25.27;;;103.00;2099.20;;;;;;5063032;28;20017;-76
2021/01/09 12:38:26;;;;;;;37.88;18.88;;;102.90;2124.80;;;;;;5070285;28;20496;-80
2021/01/09 12:40:51;;;;;;;39.20;18.33;;;102.80;2099.20;;;;;;5043751;28;20025;-76
2021/01/09 12:43:17;;;;;;;33.67;17.20;;;102.70;2124.80;;;;;;5079452;28;20027;-77
2021/01/09 12:45:43;;;;;;;35.13;17.27;;;102.70;2124.80;;;;;;5073302;28;20545;-76
2021/01/09 12:48:09;;;;;;;35.05;17.98;;;102.60;2150.40;;;;;;5065837;28;20028;-76
2021/01/09 12:50:41;;;;;;;45.47;22.40;;;102.60;2150.40;;;;;;5070416;28;20055;-79
2021/01/09 12:53:07;;;;;;;51.28;27.58;;;102.50;2176.00;;;;;;5043215;28;20634;-74
2021/01/09 12:55:32;;;;;;;59.45;30.75;;;102.40;2176.00;;;;;;5059413;28;20017;-78
2021/01/09 12:57:58;;;;;;;52.55;28.50;;;102.40;2201.60;;;;;;5066989;28;20036;-76
2021/01/09 13:00:24;;;;;;;45.38;21.92;;;102.40;2176.00;;;;;;5048137;28;20031;-72
2021/01/09 13:02:49;;;;;;;47.63;22.63;;;102.40;2176.00;;;;;;5064257;28;20103;-76
2021/01/09 13:05:15;;;;;;;52.65;24.65;;;77.70;2176.00;;;;;;5058193;28;20021;-72
2021/01/09 13:07:40;;;;;;;44.40;20.20;;;102.40;2201.60;;;;;;5059922;28;20474;-76
2021/01/09 13:10:07;;;;;;;42.53;19.48;;;77.70;2201.60;;;;;;5066293;28;20054;-72
2021/01/09 13:12:32;;;;;;;46.20;20.83;;;77.70;2201.60;;;;;;5072478;28;20032;-77
2021/01/09 13:14:58;;;;;;;40.97;19.17;;;102.40;2201.60;;;;;;5049448;28;20119;-73
2021/01/09 13:17:24;;;;;;;39.30;17.05;;;102.40;2201.60;;;;;;5070183;28;20032;-74
2021/01/09 13:19:49;;;;;;;35.75;17.92;;;102.40;2201.60;;;;;;5051335;28;20560;-73
2021/01/09 13:22:15;;;;;;;39.67;18.17;;;102.40;2201.60;;;;;;5068170;28;20024;-70
2021/01/09 13:24:41;;;;;;;55.00;26.13;;;102.40;2201.60;;;;;;5050053;28;20021;-71
2021/01/09 13:27:06;;;;;;;48.80;24.05;;;102.40;2176.00;;;;;;5060883;28;20091;-76
2021/01/09 13:29:32;;;;;;;48.35;23.08;;;102.40;2201.60;;;;;;5059270;28;20097;-75
2021/01/09 13:31:58;;;;;;;48.70;22.38;;;102.40;2201.60;;;;;;5064637;28;20029;-74
2021/01/09 13:34:23;;;;;;;44.90;22.40;;;102.40;2201.60;;;;;;5074601;28;20545;-75
2021/01/09 13:36:51;;;;;;;41.28;20.48;;;102.40;2176.00;;;;;;5070179;28;20400;-74
2021/01/09 13:39:16;;;;;;;54.50;26.30;;;102.40;2201.60;;;;;;5070246;28;20150;-77
2021/01/09 13:41:42;;;;;;;57.08;25.98;;;102.40;2201.60;;;;;;5071564;28;20476;-74
2021/01/09 13:44:08;;;;;;;69.68;28.98;;;102.40;2201.60;;;;;;5062928;28;20132;-73
2021/01/09 13:46:34;;;;;;;48.60;25.60;;;102.40;2201.60;;;;;;5052572;28;20481;-74
2021/01/09 13:49:01;;;;;;;59.90;32.65;;;102.40;2201.60;;;;;;5066256;28;20037;-75
2021/01/09 13:51:31;;;;;;;101.20;50.15;;;77.70;2201.60;;;;;;5053930;28;20053;-77
2021/01/09 13:53:59;;;;;;;75.15;34.95;;;77.70;2227.20;;;;;;5067451;28;20477;-72
2021/01/09 13:56:32;;;;;;;69.00;31.75;;;77.70;2227.20;;;;;;5070611;28;20098;-75
2021/01/09 13:58:59;;;;;;;110.65;43.72;;;77.60;2227.20;;;;;;5061007;28;20023;-78
2021/01/09 14:01:25;;;;;;;117.35;45.53;;;77.50;2227.20;;;;;;5043506;28;20031;-77
2021/01/09 14:03:50;;;;;;;55.65;26.90;;;77.50;2227.20;;;;;;5055970;28;20103;-80
2021/01/09 14:06:16;;;;;;;70.32;34.63;;;77.40;2227.20;;;;;;5053202;28;20067;-79
2021/01/09 14:08:43;;;;;;;55.10;26.88;;;77.40;2227.20;;;;;;5051733;28;20021;-74
2021/01/09 14:11:08;;;;;;;57.08;30.77;;;77.30;2227.20;;;;;;5070893;28;20374;-76
2021/01/09 14:13:34;;;;;;;59.45;35.45;;;77.30;2227.20;;;;;;5070255;28;20031;-74
2021/01/09 14:16:00;;;;;;;45.58;23.35;;;77.30;2227.20;;;;;;5069588;28;20013;-78
2021/01/09 14:18:25;;;;;;;46.67;24.17;;;77.30;2227.20;;;;;;5065229;28;20025;-77
2021/01/09 14:20:54;;;;;;;45.05;23.10;;;77.20;2227.20;;;;;;5052770;28;20245;-77
2021/01/09 14:23:22;;;;;;;57.28;31.73;;;77.20;2227.20;;;;;;5065180;28;20024;-68
2021/01/09 14:25:54;;;;;;;53.58;26.15;;;77.20;2227.20;;;;;;5055372;28;20017;-71
2021/01/09 14:28:20;;;;;;;47.88;23.77;;;77.10;2227.20;;;;;;5068748;28;20028;-73
2021/01/09 14:30:46;;;;;;;34.45;19.02;;;77.10;2227.20;;;;;;5056659;28;20512;-71
2021/01/09 14:33:13;;;;;;;41.78;19.83;;;77.00;2227.20;;;;;;5065606;28;20020;-73
2021/01/09 14:35:39;;;;;;;49.08;22.88;;;76.90;2227.20;;;;;;5061377;28;20031;-73
2021/01/09 14:38:04;;;;;;;44.88;21.05;;;76.90;2227.20;;;;;;5052083;28;20033;-74
2021/01/09 14:40:30;;;;;;;50.58;24.27;;;76.90;2227.20;;;;;;5066063;28;20389;-76
2021/01/09 14:42:56;;;;;;;48.25;22.30;;;76.90;2227.20;;;;;;5046943;28;20112;-74
2021/01/09 14:45:22;;;;;;;50.95;25.52;;;76.90;2227.20;;;;;;5059531;28;20082;-76
2021/01/09 14:47:48;;;;;;;57.13;26.50;;;76.90;2227.20;;;;;;5064653;28;20029;-75
2021/01/09 14:50:14;;;;;;;122.35;43.10;;;76.80;2227.20;;;;;;5048549;28;20035;-77
2021/01/09 14:52:39;;;;;;;66.47;27.55;;;76.80;2227.20;;;;;;5054762;28;20041;-75
2021/01/09 14:55:05;;;;;;;58.20;25.52;;;76.90;2227.20;;;;;;5060483;28;20025;-75
2021/01/09 14:57:31;;;;;;;55.13;23.60;;;76.80;2227.20;;;;;;5060466;28;20044;-76
2021/01/09 14:59:57;;;;;;;59.90;25.67;;;76.80;2227.20;;;;;;5060237;28;20017;-76
2021/01/09 15:02:22;;;;;;;53.38;24.80;;;76.90;2227.20;;;;;;5060627;28;20020;-75
2021/01/09 15:04:48;;;;;;;54.85;25.77;;;76.90;2227.20;;;;;;5061409;28;20139;-77
2021/01/09 15:07:13;;;;;;;57.38;26.20;;;76.90;2227.20;;;;;;5064805;28;20464;-76
2021/01/09 15:09:39;;;;;;;70.32;31.90;;;76.90;2227.20;;;;;;5067160;28;20492;-76
2021/01/09 15:12:05;;;;;;;68.22;29.67;;;76.80;2227.20;;;;;;5060633;28;20031;-75
2021/01/09 15:14:31;;;;;;;58.33;25.98;;;76.80;2227.20;;;;;;5064498;28;20020;-75
2021/01/09 15:16:56;;;;;;;65.97;29.55;;;76.80;2227.20;;;;;;5068598;28;20016;-74
2021/01/09 15:19:22;;;;;;;53.15;25.90;;;52.10;2227.20;;;;;;5065553;28;20448;-73
2021/01/09 15:21:48;;;;;;;58.50;27.20;;;76.80;2227.20;;;;;;5057050;28;20096;-72
2021/01/09 15:24:15;;;;;;;61.15;27.08;;;76.80;2227.20;;;;;;5055272;28;20013;-73
2021/01/09 15:26:41;;;;;;;63.75;29.55;;;76.90;2227.20;;;;;;5058170;28;20105;-75
2021/01/09 15:29:06;;;;;;;68.88;32.75;;;52.10;2227.20;;;;;;5042412;28;20029;-75
2021/01/09 15:31:32;;;;;;;71.90;33.45;;;52.10;2227.20;;;;;;5040349;28;20401;-74
2021/01/09 15:33:58;;;;;;;70.25;29.85;;;76.80;2227.20;;;;;;5042288;28;20033;-75
2021/01/09 15:36:28;;;;;;;83.47;36.45;;;52.10;2227.20;;;;;;5067906;28;20036;-77
2021/01/09 15:38:54;;;;;;;66.65;29.30;;;52.10;2227.20;;;;;;5060301;28;20461;-71
2021/01/09 15:41:20;;;;;;;61.58;27.33;;;76.80;2227.20;;;;;;5060843;28;20078;-75
2021/01/09 15:43:45;;;;;;;68.80;31.15;;;76.80;2227.20;;;;;;5065851;28;20020;-74
2021/01/09 15:46:11;;;;;;;70.47;30.92;;;52.10;2227.20;;;;;;5066208;28;20037;-74
2021/01/09 15:48:38;;;;;;;61.15;30.05;;;76.80;2227.20;;;;;;5056468;28;20024;-75
2021/01/09 15:51:04;;;;;;;54.38;26.45;;;76.80;2227.20;;;;;;5061889;28;20013;-77
2021/01/09 15:53:30;;;;;;;55.53;24.38;;;52.10;2227.20;;;;;;5042709;28;20021;-74
2021/01/09 15:56:06;;;;;;;48.53;21.65;;;76.80;2227.20;;;;;;5064424;28;20013;-73
2021/01/09 15:58:37;;;;;;;63.78;30.40;;;76.80;2227.20;;;;;;5043841;28;20048;-75
2021/01/09 16:01:05;;;;;;;67.82;30.38;;;76.80;2227.20;;;;;;5066014;28;20108;-76
2021/01/09 16:03:30;;;;;;;63.45;29.88;;;52.10;2227.20;;;;;;5074265;28;20028;-75
2021/01/09 16:05:56;;;;;;;64.97;30.55;;;52.10;2227.20;;;;;;5063889;28;20078;-72
2021/01/09 16:08:22;;;;;;;64.95;30.17;;;76.80;2227.20;;;;;;5068386;28;20023;-72
2021/01/09 16:10:50;;;;;;;72.88;31.92;;;52.10;2227.20;;;;;;5056132;28;20021;-76
2021/01/09 16:13:19;;;;;;;57.50;25.83;;;52.10;2227.20;;;;;;5069636;28;20112;-76
2021/01/09 16:15:46;;;;;;;60.90;25.73;;;52.10;2227.20;;;;;;5049847;28;20024;-75
2021/01/09 16:18:11;;;;;;;60.42;25.42;;;52.10;2227.20;;;;;;5055843;28;20071;-77
2021/01/09 16:20:37;;;;;;;56.38;24.52;;;76.80;2227.20;;;;;;5052070;28;20021;-74
2021/01/09 16:23:03;;;;;;;55.03;23.77;;;52.10;2227.20;;;;;;5064119;28;20020;-74
2021/01/09 16:25:28;;;;;;;60.72;28.10;;;52.10;2227.20;;;;;;5073425;28;20452;-75
2021/01/09 16:27:58;;;;;;;55.10;23.33;;;76.80;2227.20;;;;;;5054499;28;20055;-76
2021/01/09 16:30:26;;;;;;;54.90;23.90;;;76.80;2227.20;;;;;;5064771;28;20478;-75
2021/01/09 16:32:53;;;;;;;61.22;24.23;;;76.80;2227.20;;;;;;5065970;28;20028;-72
2021/01/09 16:35:19;;;;;;;55.60;24.15;;;76.80;2227.20;;;;;;5072500;28;20024;-75
2021/01/09 16:37:45;;;;;;;59.22;25.25;;;76.80;2227.20;;;;;;5070897;28;20051;-76
2021/01/09 16:40:11;;;;;;;61.65;24.23;;;76.80;2227.20;;;;;;5068237;28;20056;-74
2021/01/09 16:42:40;;;;;;;58.38;25.20;;;76.80;2227.20;;;;;;5059584;28;20021;-75
2021/01/09 16:45:06;;;;;;;58.60;24.20;;;76.80;2227.20;;;;;;5069302;28;20024;-76
2021/01/09 16:47:32;;;;;;;55.75;23.08;;;76.80;2227.20;;;;;;5068978;28;20025;-76
2021/01/09 16:49:58;;;;;;;54.50;23.25;;;76.80;2227.20;;;;;;5072896;28;20035;-75
2021/01/09 16:52:24;;;;;;;55.78;22.58;;;76.80;2227.20;;;;;;5072132;28;20016;-77
2021/01/09 16:54:49;;;;;;;58.05;23.83;;;76.80;2227.20;;;;;;5061487;28;20021;-77
2021/01/09 16:57:15;;;;;;;58.13;25.08;;;76.80;2227.20;;;;;;5066080;28;20060;-76
2021/01/09 16:59:41;;;;;;;58.60;24.35;;;76.80;2227.20;;;;;;5057908;28;20020;-75
2021/01/09 17:02:06;;;;;;;63.70;26.85;;;52.10;2227.20;;;;;;5071412;28;20407;-72
2021/01/09 17:04:32;;;;;;;59.30;25.30;;;52.10;2227.20;;;;;;5067294;28;20070;-73
2021/01/09 17:06:58;;;;;;;71.88;29.50;;;52.10;2227.20;;;;;;5065349;28;20040;-72
2021/01/09 17:09:23;;;;;;;68.13;27.13;;;52.10;2227.20;;;;;;5054585;28;20028;-73
2021/01/09 17:11:50;;;;;;;69.53;28.58;;;52.10;2227.20;;;;;;5060591;28;20138;-73
2021/01/09 17:14:17;;;;;;;77.57;30.15;;;52.10;2227.20;;;;;;5068560;28;20492;-71
2021/01/09 17:16:43;;;;;;;87.47;34.95;;;52.10;2227.20;;;;;;5067409;28;20025;-80
2021/01/09 17:19:09;;;;;;;73.55;29.30;;;52.10;2227.20;;;;;;5029849;28;20032;-73
2021/01/09 17:21:39;;;;;;;76.30;30.15;;;52.10;2227.20;;;;;;5042008;28;20029;-74
2021/01/09 17:24:05;;;;;;;76.18;31.40;;;52.10;2227.20;;;;;;5065092;28;20024;-75
2021/01/09 17:26:42;;;;;;;77.47;31.85;;;52.10;2227.20;;;;;;5058947;28;20025;-70
2021/01/09 17:29:07;;;;;;;72.75;29.75;;;52.10;2227.20;;;;;;5067065;28;20108;-74
2021/01/09 17:31:38;;;;;;;75.80;31.15;;;52.10;2227.20;;;;;;5063473;28;20447;-70
2021/01/09 17:34:03;;;;;;;83.68;35.88;;;52.10;2227.20;;;;;;5062295;28;20032;-73
2021/01/09 17:36:29;;;;;;;84.10;34.50;;;52.10;2227.20;;;;;;5069310;28;20104;-75
2021/01/09 17:38:55;;;;;;;81.15;35.28;;;52.10;2227.20;;;;;;5056470;28;20094;-73
2021/01/09 17:41:21;;;;;;;88.03;35.47;;;52.00;2227.20;;;;;;5063780;28;20072;-73
2021/01/09 17:43:46;;;;;;;85.43;35.30;;;52.00;2227.20;;;;;;5054770;28;20029;-77
2021/01/09 17:46:12;;;;;;;123.97;50.03;;;52.00;2227.20;;;;;;5056037;28;20098;-74
2021/01/09 17:48:37;;;;;;;103.45;42.00;;;52.00;2227.20;;;;;;5055446;28;20021;-74
2021/01/09 17:51:07;;;;;;;113.03;43.78;;;52.00;2227.20;;;;;;5063151;28;20526;-73
2021/01/09 17:53:32;;;;;;;111.22;43.78;;;52.00;2227.20;;;;;;5061299;28;20031;-74
2021/01/09 17:56:04;;;;;;;129.55;54.17;;;52.00;2227.20;;;;;;5068688;28;20024;-74
2021/01/09 17:58:30;;;;;;;150.40;69.15;;;51.90;2227.20;;;;;;5062379;28;20400;-74
2021/01/09 18:00:55;;;;;;;150.82;69.15;;;51.80;2227.20;;;;;;5059301;28;20021;-71
2021/01/09 18:03:22;;;;;;;119.45;55.63;;;51.90;2227.20;;;;;;5060956;28;20117;-71
2021/01/09 18:05:49;;;;;;;128.93;50.90;;;51.90;2227.20;;;;;;5057908;28;20109;-76
2021/01/09 18:08:15;;;;;;;114.43;44.05;;;51.90;2227.20;;;;;;5061094;28;20439;-76
2021/01/09 18:10:40;;;;;;;98.20;37.70;;;51.90;2227.20;;;;;;5069393;28;20025;-73
2021/01/09 18:13:06;;;;;;;85.00;32.33;;;51.90;2227.20;;;;;;5063551;28;20020;-74
2021/01/09 18:15:32;;;;;;;89.00;35.47;;;51.90;2227.20;;;;;;5062604;28;20025;-77
2021/01/09 18:17:57;;;;;;;94.47;35.22;;;51.90;2227.20;;;;;;5057354;28;20036;-76
2021/01/09 18:20:23;;;;;;;110.43;42.40;;;51.90;2227.20;;;;;;5046305;28;20036;-77
2021/01/09 18:22:48;;;;;;;100.43;39.33;;;51.80;2227.20;;;;;;5054297;28;20021;-75
2021/01/09 18:25:14;;;;;;;102.90;38.95;;;51.80;2227.20;;;;;;5059485;28;20367;-73
2021/01/09 18:27:40;;;;;;;100.05;36.92;;;51.80;2227.20;;;;;;5062082;28;20020;-74
2021/01/09 18:30:06;;;;;;;90.10;33.55;;;51.80;2227.20;;;;;;5054816;28;20020;-74
2021/01/09 18:32:31;;;;;;;75.53;29.85;;;51.80;2227.20;;;;;;5058825;28;20029;-73
2021/01/09 18:34:57;;;;;;;80.20;29.65;;;51.80;2227.20;;;;;;5065237;28;20028;-74
2021/01/09 18:37:23;;;;;;;82.03;31.45;;;51.80;2227.20;;;;;;5070393;28;20039;-73
2021/01/09 18:39:48;;;;;;;90.50;34.28;;;51.80;2227.20;;;;;;5065049;28;20028;-80
2021/01/09 18:42:14;;;;;;;80.07;32.03;;;51.80;2227.20;;;;;;5067342;28;20127;-79
2021/01/09 18:44:39;;;;;;;96.82;38.60;;;51.70;2227.20;;;;;;5061105;28;20035;-76
2021/01/09 18:47:05;;;;;;;92.85;35.28;;;51.70;2227.20;;;;;;5048829;28;20086;-75
2021/01/09 18:49:32;;;;;;;90.43;34.22;;;51.70;2227.20;;;;;;5045204;28;20021;-82
2021/01/09 18:51:57;;;;;;;87.88;31.15;;;51.70;2227.20;;;;;;5060430;28;20032;-73
2021/01/09 18:54:23;;;;;;;81.70;30.15;;;51.70;2227.20;;;;;;5068805;28;20029;-73
2021/01/09 18:56:48;;;;;;;80.97;30.95;;;51.70;2227.20;;;;;;5067887;28;20045;-76
2021/01/09 18:59:14;;;;;;;86.03;29.67;;;51.70;2227.20;;;;;;5063690;28;20048;-76
2021/01/09 19:01:44;;;;;;;90.50;33.50;;;51.70;2227.20;;;;;;5054789;28;20039;-77
2021/01/09 19:04:10;;;;;;;86.95;33.60;;;51.70;2227.20;;;;;;5068775;28;20093;-74
2021/01/09 19:06:36;;;;;;;96.00;37.63;;;51.70;2227.20;;;;;;5065321;28;20028;-74
2021/01/09 19:09:02;;;;;;;99.50;38.60;;;51.60;2227.20;;;;;;5069182;28;20105;-76
2021/01/09 19:11:27;;;;;;;90.18;32.97;;;51.60;2227.20;;;;;;5063384;28;20393;-81
2021/01/09 19:13:53;;;;;;;89.50;34.35;;;51.60;2227.20;;;;;;5047489;28;20032;-75
2021/01/09 19:16:23;;;;;;;89.63;34.33;;;51.60;2227.20;;;;;;5064629;28;20025;-74
2021/01/09 19:18:49;;;;;;;97.55;37.22;;;51.60;2227.20;;;;;;5060135;28;20367;-74
2021/01/09 19:21:14;;;;;;;82.53;28.55;;;51.60;2227.20;;;;;;5064991;28;20025;-71
2021/01/09 19:23:40;;;;;;;79.10;28.25;;;51.60;2227.20;;;;;;5048289;28;20040;-72
2021/01/09 19:26:10;;;;;;;84.10;30.13;;;51.60;2227.20;;;;;;5065244;28;20473;-71
2021/01/09 19:28:35;;;;;;;84.50;30.65;;;51.60;2227.20;;;;;;5068444;28;20477;-71
2021/01/09 19:31:01;;;;;;;83.25;32.78;;;51.70;2227.20;;;;;;5063390;28;20033;-74
2021/01/09 19:33:27;;;;;;;84.68;29.58;;;51.70;2227.20;;;;;;5062668;28;20058;-75
2021/01/09 19:35:52;;;;;;;77.40;28.13;;;51.70;2227.20;;;;;;5062077;28;20095;-74
2021/01/09 19:38:18;;;;;;;73.05;27.77;;;51.70;2227.20;;;;;;5062092;28;20029;-76
2021/01/09 19:40:43;;;;;;;69.97;26.15;;;51.60;2227.20;;;;;;5062025;28;20021;-75
2021/01/09 19:43:09;;;;;;;82.13;30.80;;;51.60;2227.20;;;;;;5049002;28;20025;-73
2021/01/09 19:45:39;;;;;;;92.53;31.52;;;51.60;2227.20;;;;;;5066435;28;20428;-75
2021/01/09 19:48:06;;;;;;;89.57;31.58;;;51.50;2227.20;;;;;;5070762;28;20024;-78
2021/01/09 19:50:33;;;;;;;86.93;27.70;;;51.50;2227.20;;;;;;5067975;28;20513;-75
2021/01/09 19:52:58;;;;;;;88.15;30.52;;;51.50;2227.20;;;;;;5070628;28;20470;-74
2021/01/09 19:55:24;;;;;;;111.15;34.10;;;51.50;2227.20;;;;;;5058592;28;20040;-77
2021/01/09 19:57:49;;;;;;;102.30;32.83;;;51.40;2227.20;;;;;;5057001;28;20041;-74
2021/01/09 20:00:17;;;;;;;101.45;32.15;;;51.50;2227.20;;;;;;5069756;28;20441;-76
2021/01/09 20:02:42;;;;;;;97.40;32.00;;;51.40;2227.20;;;;;;5070617;28;20096;-71
2021/01/09 20:05:09;;;;;;;98.18;33.20;;;51.40;2227.20;;;;;;5068286;28;20096;-78
2021/01/09 20:07:34;;;;;;;97.30;31.80;;;51.40;2227.20;;;;;;5063199;28;20035;-73
2021/01/09 20:10:00;;;;;;;87.10;29.75;;;51.40;2227.20;;;;;;5072823;28;20393;-73
2021/01/09 20:12:26;;;;;;;92.50;31.48;;;51.40;2227.20;;;;;;5073122;28;20107;-71
2021/01/09 20:14:51;;;;;;;94.72;32.90;;;51.40;2227.20;;;;;;5072386;28;20469;-74
2021/01/09 20:17:17;;;;;;;93.07;31.50;;;51.40;2227.20;;;;;;5068352;28;20029;-72
2021/01/09 20:19:43;;;;;;;84.15;30.02;;;51.40;2227.20;;;;;;5057879;28;20017;-72
2021/01/09 20:22:10;;;;;;;96.43;31.50;;;51.40;2227.20;;;;;;5058796;28;20069;-77
2021/01/09 20:24:35;;;;;;;102.07;37.28;;;51.40;2227.20;;;;;;5058103;28;20086;-72
2021/01/09 20:27:01;;;;;;;91.70;32.08;;;51.40;2227.20;;;;;;5055441;28;20470;-72
2021/01/09 20:29:29;;;;;;;109.38;37.00;;;51.40;2227.20;;;;;;5054734;28;20033;-72
2021/01/09 20:31:55;;;;;;;93.78;32.22;;;51.40;2227.20;;;;;;5058167;28;20039;-71
2021/01/09 20:34:20;;;;;;;104.47;36.17;;;51.40;2227.20;;;;;;5067279;28;20032;-72
2021/01/09 20:36:46;;;;;;;104.55;34.97;;;51.40;2227.20;;;;;;5072050;28;20110;-72
2021/01/09 20:39:12;;;;;;;90.93;36.10;;;51.40;2227.20;;;;;;5071353;28;20052;-71
2021/01/09 20:41:37;;;;;;;98.35;34.22;;;51.40;2227.20;;;;;;5047715;28;20021;-71
2021/01/09 20:44:04;;;;;;;94.93;33.45;;;51.50;2227.20;;;;;;5056818;28;20102;-74
2021/01/09 20:46:29;;;;;;;90.22;31.63;;;51.50;2227.20;;;;;;5065686;28;20025;-74
2021/01/09 20:48:55;;;;;;;89.45;31.95;;;51.50;2227.20;;;;;;5067501;28;20017;-70
2021/01/09 20:51:21;;;;;;;105.88;40.95;;;51.50;2227.20;;;;;;5056009;28;20393;-80
2021/01/09 20:53:47;;;;;;;144.15;52.45;;;51.50;2227.20;;;;;;5069009;28;20017;-73
2021/01/09 20:56:12;;;;;;;100.15;38.13;;;51.50;2227.20;;;;;;5070161;28;20021;-71
2021/01/09 20:58:38;;;;;;;106.75;39.08;;;51.50;2227.20;;;;;;5050293;28;20052;-73
2021/01/09 21:01:04;;;;;;;114.78;40.95;;;51.60;2227.20;;;;;;5069879;28;20074;-74
2021/01/09 21:03:30;;;;;;;122.20;41.40;;;51.50;2227.20;;;;;;5052824;28;20028;-75
2021/01/09 21:05:55;;;;;;;103.53;39.83;;;51.40;2227.20;;;;;;5071272;28;20021;-72
2021/01/09 21:08:21;;;;;;;98.47;36.90;;;51.50;2227.20;;;;;;5069422;28;20056;-70
2021/01/09 21:10:47;;;;;;;107.85;40.58;;;51.40;2227.20;;;;;;5059020;28;20546;-69
2021/01/09 21:13:12;;;;;;;122.47;45.92;;;51.50;2227.20;;;;;;5058331;28;20424;-74
2021/01/09 21:15:38;;;;;;;117.30;42.88;;;51.50;2227.20;;;;;;5059463;28;20021;-69
2021/01/09 21:18:03;;;;;;;118.07;43.70;;;51.40;2227.20;;;;;;5061065;28;20020;-71
2021/01/09 21:20:29;;;;;;;128.93;46.15;;;51.50;2227.20;;;;;;5056763;28;20470;-69
2021/01/09 21:22:55;;;;;;;122.47;43.63;;;51.40;2227.20;;;;;;5062886;28;20051;-70
2021/01/09 21:25:20;;;;;;;121.18;44.28;;;51.40;2227.20;;;;;;5063862;28;20109;-70
2021/01/09 21:27:48;;;;;;;120.95;43.90;;;51.30;2227.20;;;;;;5058729;28;20091;-71
2021/01/09 21:30:14;;;;;;;133.23;47.45;;;51.40;2227.20;;;;;;5063328;28;20035;-74
2021/01/09 21:32:40;;;;;;;120.07;44.80;;;51.30;2227.20;;;;;;5070645;28;20036;-71
2021/01/09 21:35:06;;;;;;;118.93;44.92;;;51.30;2227.20;;;;;;5058599;28;20039;-73
2021/01/09 21:37:32;;;;;;;121.65;44.08;;;51.30;2227.20;;;;;;5066490;28;20031;-78
2021/01/09 21:39:58;;;;;;;115.97;42.50;;;51.20;2227.20;;;;;;5057861;28;20035;-75
2021/01/09 21:42:24;;;;;;;113.32;42.63;;;51.30;2227.20;;;;;;5065348;28;20013;-79
2021/01/09 21:44:50;;;;;;;127.30;45.17;;;51.30;2227.20;;;;;;5053911;28;20367;-85
2021/01/09 21:47:19;;;;;;;117.68;43.00;;;51.30;2227.20;;;;;;5052728;28;20025;-79
2021/01/09 21:49:48;;;;;;;114.20;40.92;;;51.30;2227.20;;;;;;5062324;28;20393;-78
2021/01/09 21:52:14;;;;;;;117.82;41.38;;;51.30;2227.20;;;;;;5058158;28;20378;-74
2021/01/09 21:54:39;;;;;;;118.15;43.20;;;51.30;2227.20;;;;;;5067393;28;20039;-73
2021/01/09 21:57:05;;;;;;;108.45;41.55;;;51.30;2227.20;;;;;;5060259;28;20094;-75
2021/01/09 21:59:31;;;;;;;114.35;40.88;;;51.30;2227.20;;;;;;5055128;28;20017;-81
2021/01/09 22:01:57;;;;;;;106.15;39.40;;;51.30;2227.20;;;;;;5054948;28;20013;-81
2021/01/09 22:04:22;;;;;;;111.07;40.58;;;51.30;2227.20;;;;;;5063144;28;20100;-75
2021/01/09 22:06:48;;;;;;;108.00;38.50;;;51.40;2227.20;;;;;;5064271;28;20440;-74
2021/01/09 22:09:14;;;;;;;105.28;39.92;;;51.30;2227.20;;;;;;5053951;28;20104;-75
2021/01/09 22:11:44;;;;;;;107.10;40.42;;;51.30;2227.20;;;;;;5053718;28;20094;-84
2021/01/09 22:14:13;;;;;;;105.50;39.83;;;51.30;2227.20;;;;;;5051742;28;20038;-77
2021/01/09 22:16:39;;;;;;;124.18;42.67;;;51.30;2227.20;;;;;;5055437;28;20020;-74
2021/01/09 22:19:08;;;;;;;112.65;40.42;;;51.20;2227.20;;;;;;5054417;28;20112;-75
2021/01/09 22:21:35;;;;;;;122.90;44.08;;;51.20;2227.20;;;;;;5055965;28;20089;-78
2021/01/09 22:24:01;;;;;;;122.68;44.85;;;51.20;2227.20;;;;;;5069083;28;20130;-77
2021/01/09 22:26:26;;;;;;;120.53;43.33;;;51.20;2227.20;;;;;;5058993;28;20017;-75
2021/01/09 22:28:52;;;;;;;117.85;41.58;;;51.20;2227.20;;;;;;5064926;28;20017;-76
2021/01/09 22:31:18;;;;;;;114.47;41.28;;;51.20;2227.20;;;;;;5053609;28;20543;-75
2021/01/09 22:33:47;;;;;;;115.63;39.17;;;51.20;2227.20;;;;;;5057203;28;20029;-79
2021/01/09 22:36:12;;;;;;;112.15;40.20;;;51.20;2227.20;;;;;;5056983;28;20036;-80
2021/01/09 22:38:38;;;;;;;118.70;39.30;;;51.20;2227.20;;;;;;5063726;28;20025;-78
2021/01/09 22:41:04;;;;;;;106.88;40.00;;;26.50;2201.60;;;;;;5061644;28;20039;-73
2021/01/09 22:43:31;;;;;;;101.65;38.83;;;26.50;2201.60;;;;;;5053967;28;20031;-78
2021/01/09 22:45:57;;;;;;;108.78;41.60;;;51.20;2227.20;;;;;;5056599;28;20028;-72
2021/01/09 22:48:23;;;;;;;101.30;39.35;;;51.20;2227.20;;;;;;5053855;28;20412;-77
2021/01/09 22:50:49;;;;;;;97.63;37.05;;;51.20;2227.20;;;;;;5053704;28;20470;-78